Aviation Digital Data Service (ADDS)

Output produced by METARs form (1415 UTC 22 April 2019)
found at http://www.aviationweather.gov/metar/data/
 
Forecast for: KATL (ATLANTA , GA, US)
Text: KATL 221355Z 2214/2318 30005KT P6SM SKC
Forecast period: 1400 UTC 22 April 2019 to 0000 UTC 23 April 2019
Forecast type: FROM: standard forecast or significant change
Winds: from the WNW (300 degrees) at 6 MPH (5 knots; 2.6 m/s)
Visibility: 6 or more miles 10+ km)
Clouds: clear skies
Weather: no significant weather forecast for this period
Text: FM230000 24003KT P6SM SKC
Forecast period: 0000 to 1500 UTC 23 April 2019
Forecast type: FROM: standard forecast or significant change
Winds: from the WSW (240 degrees) at 3 MPH (3 knots; 1.5 m/s)
Visibility: 6 or more miles 10+ km)
Clouds: clear skies
Weather: no significant weather forecast for this period
Text: FM231500 28006KT P6SM SKC
Forecast period: 1500 to 1800 UTC 23 April 2019
Forecast type: FROM: standard forecast or significant change
Winds: from the W (280 degrees) at 7 MPH (6 knots; 3.1 m/s)
Visibility: 6 or more miles 10+ km)
Clouds: clear skies
Weather: no significant weather forecast for this period